createdAt,value
2023-04-22T00:04:51.311Z,6.64
2023-04-22T00:09:58.212Z,6.42
2023-04-22T00:15:06.963Z,6.42
2023-04-22T00:20:15.555Z,6.47
2023-04-22T00:25:21.856Z,6.42
2023-04-22T00:30:30.178Z,6.22
2023-04-22T00:35:37.071Z,5.85
2023-04-22T00:40:43.492Z,5.63
2023-04-22T00:45:51.796Z,5.74
2023-04-22T00:50:57.984Z,5.84
2023-04-22T00:56:04.449Z,5.80
2023-04-22T01:01:13.098Z,5.80
2023-04-22T01:06:21.898Z,5.71
2023-04-22T01:11:28.201Z,5.76
2023-04-22T01:16:39.320Z,5.84
2023-04-22T01:21:46.663Z,5.80
2023-04-22T01:26:54.499Z,5.81
2023-04-22T01:32:01.295Z,5.72
2023-04-22T01:37:11.267Z,5.63
2023-04-22T01:42:20.742Z,5.40
2023-04-22T01:47:27.885Z,5.21
2023-04-22T01:52:34.286Z,5.33
2023-04-22T01:57:42.008Z,5.38
2023-04-22T02:02:48.500Z,5.37
2023-04-22T02:07:55.595Z,5.28
2023-04-22T02:13:03.706Z,5.26
2023-04-22T02:18:10.480Z,5.15
2023-04-22T02:23:16.851Z,5.13
2023-04-22T02:28:24.599Z,4.96
2023-04-22T02:33:30.899Z,4.99
2023-04-22T02:38:37.430Z,4.93
2023-04-22T02:43:47.530Z,4.85
2023-04-22T02:48:54.381Z,4.91
2023-04-22T02:54:01.253Z,4.86
2023-04-22T02:59:09.441Z,4.81
2023-04-22T03:04:16.543Z,4.80
2023-04-22T03:09:26.159Z,4.77
2023-04-22T03:14:33.917Z,4.57
2023-04-22T03:19:40.487Z,4.54
2023-04-22T03:24:47.933Z,4.31
2023-04-22T03:29:56.368Z,4.39
2023-04-22T03:35:03.924Z,4.45
2023-04-22T03:40:13.701Z,4.52
2023-04-22T03:45:22.642Z,4.42
2023-04-22T03:50:51.937Z,4.36
2023-04-22T03:55:58.692Z,4.32
2023-04-22T04:01:07.609Z,4.28
2023-04-22T04:06:14.274Z,3.90
2023-04-22T04:11:21.584Z,4.08
2023-04-22T04:16:31.121Z,4.02
2023-04-22T04:21:44.531Z,4.18
2023-04-22T04:26:52.285Z,4.42
2023-04-22T04:32:05.226Z,4.73
2023-04-22T04:37:12.013Z,4.98
2023-04-22T04:42:33.843Z,5.31
2023-04-22T04:47:46.563Z,5.68
2023-04-22T04:52:59.685Z,6.17
2023-04-22T04:58:12.847Z,6.26
2023-04-22T05:03:21.092Z,6.33
2023-04-22T05:08:28.585Z,6.46
2023-04-22T05:13:41.930Z,6.59
2023-04-22T05:18:54.942Z,6.84
2023-04-22T05:24:01.629Z,7.11
2023-04-22T05:29:09.020Z,7.38
2023-04-22T05:34:17.426Z,7.69
2023-04-22T05:39:24.149Z,7.94
2023-04-22T05:44:31.109Z,8.10
2023-04-22T05:49:39.722Z,8.22
2023-04-22T05:54:54.443Z,8.35
2023-04-22T06:00:02.063Z,8.55
2023-04-22T06:05:13.657Z,8.66
2023-04-22T06:10:20.330Z,8.79
2023-04-22T06:15:28.771Z,8.88
2023-04-22T06:20:38.536Z,9.04
2023-04-22T06:25:44.924Z,9.30
2023-04-22T06:30:51.229Z,9.37
2023-04-22T06:35:59.605Z,9.42
2023-04-22T06:41:09.184Z,9.49
2023-04-22T06:46:19.102Z,9.86
2023-04-22T06:51:33.584Z,10.05
2023-04-22T06:56:40.885Z,10.39
2023-04-22T07:01:47.492Z,10.53
2023-04-22T07:06:56.469Z,10.77
2023-04-22T07:12:03.213Z,10.66
2023-04-22T07:17:10.332Z,10.77
2023-04-22T07:22:18.181Z,11.01
2023-04-22T07:27:24.796Z,11.21
2023-04-22T07:32:33.745Z,11.25
2023-04-22T07:37:41.782Z,11.20
2023-04-22T07:42:48.625Z,11.24
2023-04-22T07:47:55.448Z,11.31
2023-04-22T07:53:03.323Z,11.41
2023-04-22T07:58:09.740Z,11.52
2023-04-22T08:03:16.622Z,11.63
2023-04-22T08:08:25.047Z,11.78
2023-04-22T08:13:31.547Z,12.38
2023-04-22T08:18:38.281Z,12.54
2023-04-22T08:23:46.590Z,12.92
2023-04-22T08:28:52.994Z,12.98
2023-04-22T08:34:00.004Z,13.06
2023-04-22T08:39:08.005Z,12.96
2023-04-22T08:44:15.866Z,13.18
2023-04-22T08:49:23.002Z,13.14
2023-04-22T08:54:30.919Z,13.20
2023-04-22T08:59:39.287Z,13.35
2023-04-22T09:04:48.035Z,13.75
2023-04-22T09:09:57.030Z,13.98
2023-04-22T09:15:04.444Z,13.81
2023-04-22T09:20:12.628Z,14.09
2023-04-22T09:25:22.628Z,13.93
2023-04-22T09:30:31.405Z,14.16
2023-04-22T09:35:40.193Z,14.17
2023-04-22T09:40:49.132Z,14.68
2023-04-22T09:45:55.911Z,14.82
2023-04-22T09:51:02.636Z,14.76
2023-04-22T09:56:10.753Z,14.77
2023-04-22T10:01:17.238Z,15.50
2023-04-22T10:06:24.058Z,15.81
2023-04-22T10:11:32.514Z,15.71
2023-04-22T10:16:41.405Z,15.85
2023-04-22T10:21:48.968Z,16.12
2023-04-22T10:27:00.096Z,16.21
2023-04-22T10:32:25.211Z,16.18
2023-04-22T10:37:33.685Z,16.37
2023-04-22T10:42:44.886Z,16.58
2023-04-22T10:47:51.506Z,16.47
2023-04-22T10:53:00.398Z,16.74
2023-04-22T10:58:22.304Z,16.62
2023-04-22T11:03:31.423Z,16.67
2023-04-22T11:08:38.173Z,16.77
2023-04-22T11:13:47.862Z,16.98
2023-04-22T11:18:55.037Z,16.79
2023-04-22T11:24:06.497Z,16.72
2023-04-22T11:29:14.262Z,16.56
2023-04-22T11:34:21.016Z,16.71
2023-04-22T11:39:44.339Z,16.86
2023-04-22T11:45:04.249Z,17.17
2023-04-22T11:50:14.369Z,17.28
2023-04-22T11:55:23.414Z,17.43
2023-04-22T12:00:34.739Z,17.55
2023-04-22T12:05:43.301Z,17.57
2023-04-22T12:10:56.744Z,17.68
2023-04-22T12:16:08.875Z,17.85
2023-04-22T12:21:17.102Z,17.95
2023-04-22T12:26:27.748Z,18.01
2023-04-22T12:31:36.231Z,18.02
2023-04-22T12:36:42.840Z,18.21
2023-04-22T12:41:51.338Z,18.17
2023-04-22T12:46:59.300Z,18.13
2023-04-22T12:52:05.716Z,18.29
2023-04-22T12:57:12.311Z,18.33
2023-04-22T13:02:20.323Z,18.34
2023-04-22T13:07:26.988Z,18.27
2023-04-22T13:12:33.544Z,18.33
2023-04-22T13:17:41.964Z,18.45
2023-04-22T13:22:48.836Z,18.39
2023-04-22T13:27:55.421Z,18.37
2023-04-22T13:33:03.588Z,18.41
2023-04-22T13:38:10.269Z,18.32
2023-04-22T13:43:16.902Z,18.27
2023-04-22T13:48:24.857Z,18.25
2023-04-22T13:53:33.467Z,18.29
2023-04-22T13:58:42.799Z,18.29
2023-04-22T14:03:51.345Z,18.28
2023-04-22T14:08:58.071Z,18.28
2023-04-22T14:14:04.669Z,18.27
2023-04-22T14:19:12.934Z,18.25
2023-04-22T14:24:20.100Z,18.28
2023-04-22T14:29:26.926Z,18.31
2023-04-22T14:34:34.932Z,18.27
2023-04-22T14:39:41.812Z,18.31
2023-04-22T14:44:48.576Z,18.38
2023-04-22T14:49:56.796Z,18.39
2023-04-22T14:55:12.179Z,18.29
2023-04-22T15:00:27.627Z,18.27
2023-04-22T15:05:37.132Z,18.23
2023-04-22T15:10:43.772Z,18.13
2023-04-22T15:15:50.395Z,18.13
2023-04-22T15:20:58.678Z,18.14
2023-04-22T15:26:05.302Z,18.13
2023-04-22T15:31:11.972Z,18.09
2023-04-22T15:36:22.143Z,18.04
2023-04-22T15:41:29.277Z,17.97
2023-04-22T15:46:35.914Z,17.88
2023-04-22T15:51:43.935Z,17.81
2023-04-22T15:56:50.745Z,17.75
2023-04-22T16:01:57.810Z,17.68
2023-04-22T16:07:06.507Z,17.62
2023-04-22T16:12:13.948Z,17.55
2023-04-22T16:17:21.146Z,17.50
2023-04-22T16:22:29.384Z,17.44
2023-04-22T16:27:35.949Z,17.31
2023-04-22T16:32:42.740Z,17.19
2023-04-22T16:37:51.402Z,17.10
2023-04-22T16:43:03.250Z,17.04
2023-04-22T16:48:09.681Z,16.92
2023-04-22T16:53:17.663Z,16.81
2023-04-22T16:58:24.365Z,16.68
2023-04-22T17:03:31.155Z,16.56
2023-04-22T17:08:39.512Z,16.40
2023-04-22T17:13:46.153Z,16.26
2023-04-22T17:18:52.707Z,16.14
2023-04-22T17:24:02.512Z,16.00
2023-04-22T17:29:08.998Z,15.89
2023-04-22T17:34:15.519Z,15.76
2023-04-22T17:39:23.491Z,15.61
2023-04-22T17:44:30.001Z,15.46
2023-04-22T17:49:36.498Z,15.31
2023-04-22T17:54:45.067Z,15.19
2023-04-22T17:59:51.441Z,15.07
2023-04-22T18:04:57.960Z,14.94
2023-04-22T18:10:06.743Z,14.78
2023-04-22T18:15:13.404Z,14.61
2023-04-22T18:20:20.992Z,14.43
2023-04-22T18:25:30.147Z,14.28
2023-04-22T18:30:36.937Z,14.11
2023-04-22T18:35:44.586Z,13.99
2023-04-22T18:40:53.822Z,13.83
2023-04-22T18:46:00.779Z,13.68
2023-04-22T18:51:08.149Z,13.53
2023-04-22T18:56:16.253Z,13.39
2023-04-22T19:01:22.878Z,13.01
2023-04-22T19:06:30.477Z,12.72
2023-04-22T19:11:39.363Z,12.48
2023-04-22T19:16:47.377Z,12.24
2023-04-22T19:21:54.930Z,12.10
2023-04-22T19:27:07.215Z,11.96
2023-04-22T19:32:14.413Z,11.80
2023-04-22T19:37:24.144Z,11.57
2023-04-22T19:42:33.772Z,11.25
2023-04-22T19:47:41.831Z,10.98
2023-04-22T19:52:52.768Z,10.72
2023-04-22T19:58:01.827Z,10.77
2023-04-22T20:03:10.438Z,10.73
2023-04-22T20:08:20.092Z,10.69
2023-04-22T20:13:30.108Z,10.59
2023-04-22T20:18:38.287Z,10.36
2023-04-22T20:23:46.544Z,10.08
2023-04-22T20:28:55.145Z,9.84
2023-04-22T20:34:03.220Z,9.77
2023-04-22T20:39:14.534Z,9.69
2023-04-22T20:44:23.047Z,9.58
2023-04-22T20:49:30.534Z,9.48
2023-04-22T20:54:37.860Z,9.33
2023-04-22T20:59:46.197Z,9.25
2023-04-22T21:04:54.013Z,9.26
2023-04-22T21:10:01.171Z,9.11
2023-04-22T21:15:12.142Z,9.11
2023-04-22T21:20:19.852Z,9.01
2023-04-22T21:25:30.352Z,8.76
2023-04-22T21:30:39.490Z,8.73
2023-04-22T21:35:46.350Z,8.72
2023-04-22T21:40:52.703Z,8.52
2023-04-22T21:46:01.331Z,8.52
2023-04-22T21:51:08.328Z,8.39
2023-04-22T21:56:17.584Z,8.41
2023-04-22T22:01:25.945Z,8.36
2023-04-22T22:06:33.683Z,8.37
2023-04-22T22:11:40.620Z,8.28
2023-04-22T22:16:50.151Z,8.06
2023-04-22T22:21:57.194Z,7.89
2023-04-22T22:27:05.508Z,7.89
2023-04-22T22:32:13.720Z,7.82
2023-04-22T22:37:20.762Z,7.62
2023-04-22T22:42:27.756Z,7.48
2023-04-22T22:47:36.202Z,7.35
2023-04-22T22:52:43.117Z,7.35
2023-04-22T22:57:49.495Z,7.23
2023-04-22T23:02:58.248Z,7.25
2023-04-22T23:08:05.393Z,7.11
2023-04-22T23:13:12.477Z,6.99
2023-04-22T23:18:21.235Z,7.05
2023-04-22T23:23:29.763Z,6.94
2023-04-22T23:28:37.460Z,6.86
2023-04-22T23:33:46.116Z,6.91
2023-04-22T23:38:52.494Z,6.75
2023-04-22T23:43:59.202Z,6.74
2023-04-22T23:49:07.622Z,6.62
2023-04-22T23:54:14.058Z,6.61
2023-04-22T23:59:21.508Z,6.56
